createdAt,value
2019-02-23T00:03:05.836Z,60.59
2019-02-23T00:05:34.349Z,60.54
2019-02-23T00:08:02.963Z,60.51
2019-02-23T00:10:31.478Z,60.67
2019-02-23T00:13:03.305Z,60.89
2019-02-23T00:15:32.193Z,60.91
2019-02-23T00:18:00.759Z,61.15
2019-02-23T00:20:29.223Z,61.08
2019-02-23T00:22:57.781Z,61.18
2019-02-23T00:25:30.761Z,61.17
2019-02-23T00:27:59.296Z,61.33
2019-02-23T00:30:27.797Z,61.61
2019-02-23T00:32:56.367Z,61.26
2019-02-23T00:35:24.995Z,61.20
2019-02-23T00:37:53.479Z,61.08
2019-02-23T00:40:25.671Z,61.22
2019-02-23T00:42:54.245Z,61.10
2019-02-23T00:45:23.109Z,61.25
2019-02-23T00:47:53.275Z,61.27
2019-02-23T00:50:23.345Z,61.26
2019-02-23T00:52:51.815Z,61.08
2019-02-23T00:55:20.363Z,61.25
2019-02-23T00:57:49.193Z,61.49
2019-02-23T01:00:19.417Z,61.46
2019-02-23T01:02:47.893Z,61.47
2019-02-23T01:05:16.520Z,61.11
2019-02-23T01:07:45.275Z,60.79
2019-02-23T01:10:14.043Z,60.72
2019-02-23T01:12:42.557Z,60.84
2019-02-23T01:15:11.695Z,60.46
2019-02-23T01:17:41.085Z,60.74
2019-02-23T01:20:10.652Z,60.08
2019-02-23T01:22:39.165Z,60.26
2019-02-23T01:25:09.315Z,60.03
2019-02-23T01:27:39.417Z,60.15
2019-02-23T01:30:11.817Z,59.89
2019-02-23T01:32:42.630Z,60.12
2019-02-23T01:35:11.417Z,60.04
2019-02-23T01:37:39.958Z,60.11
2019-02-23T01:40:10.200Z,60.12
2019-02-23T01:42:38.755Z,60.17
2019-02-23T01:45:08.560Z,59.85
2019-02-23T01:47:36.998Z,60.21
2019-02-23T01:50:07.168Z,60.16
2019-02-23T01:52:35.652Z,59.97
2019-02-23T01:55:05.127Z,59.79
2019-02-23T01:57:35.770Z,59.77
2019-02-23T02:00:07.160Z,59.78
2019-02-23T02:02:35.717Z,59.74
2019-02-23T02:05:04.878Z,59.88
2019-02-23T02:07:33.410Z,59.83
2019-02-23T02:10:02.106Z,59.84
2019-02-23T02:12:30.999Z,59.90
2019-02-23T02:14:59.454Z,59.82
2019-02-23T02:17:29.583Z,59.98
2019-02-23T02:20:10.618Z,60.10
2019-02-23T02:22:34.225Z,60.02
2019-02-23T02:25:02.791Z,59.87
2019-02-23T02:27:31.248Z,59.83
2019-02-23T02:29:59.712Z,59.72
2019-02-23T02:32:31.313Z,60.03
2019-02-23T02:34:59.777Z,60.15
2019-02-23T02:37:28.247Z,60.48
2019-02-23T02:39:59.062Z,60.50
2019-02-23T02:42:27.549Z,60.62
2019-02-23T02:44:57.646Z,60.59
2019-02-23T02:47:26.152Z,60.61
2019-02-23T02:49:54.618Z,60.71
2019-02-23T02:52:23.529Z,60.94
2019-02-23T02:54:51.982Z,60.85
2019-02-23T02:57:20.450Z,60.67
2019-02-23T02:59:48.906Z,60.63
2019-02-23T03:02:17.377Z,60.40
2019-02-23T03:04:45.845Z,60.46
2019-02-23T03:07:14.337Z,60.40
2019-02-23T03:09:42.937Z,60.62
2019-02-23T03:12:11.359Z,60.80
2019-02-23T03:14:39.919Z,60.99
2019-02-23T03:17:08.390Z,61.34
2019-02-23T03:19:38.419Z,61.43
2019-02-23T03:22:06.911Z,61.33
2019-02-23T03:24:35.383Z,61.44
2019-02-23T03:27:04.763Z,61.76
2019-02-23T03:29:33.253Z,61.69
2019-02-23T03:32:03.402Z,61.83
2019-02-23T03:34:31.839Z,61.73
2019-02-23T03:37:00.627Z,61.70
2019-02-23T03:39:29.107Z,61.95
2019-02-23T03:42:00.638Z,61.91
2019-02-23T03:44:29.117Z,61.63
2019-02-23T03:46:57.609Z,61.69
2019-02-23T03:49:27.701Z,61.69
2019-02-23T03:51:56.232Z,61.82
2019-02-23T03:54:26.383Z,62.34
2019-02-23T03:56:54.869Z,62.08
2019-02-23T03:59:23.429Z,62.02
2019-02-23T04:01:53.453Z,62.08
2019-02-23T04:04:21.937Z,61.98
2019-02-23T04:06:53.346Z,61.73
2019-02-23T04:09:21.879Z,61.58
2019-02-23T04:11:50.833Z,61.66
2019-02-23T04:14:21.273Z,61.72
2019-02-23T04:16:52.390Z,61.21
2019-02-23T04:19:26.409Z,61.32
2019-02-23T04:21:57.353Z,61.16
2019-02-23T04:24:30.088Z,61.23
2019-02-23T04:26:58.697Z,61.42
2019-02-23T04:29:27.174Z,61.39
2019-02-23T04:31:56.531Z,61.68
2019-02-23T04:34:25.784Z,61.85
2019-02-23T04:36:54.271Z,61.94
2019-02-23T04:39:23.619Z,61.73
2019-02-23T04:41:52.078Z,61.66
2019-02-23T04:44:20.577Z,61.76
2019-02-23T04:46:49.043Z,61.48
2019-02-23T04:49:19.173Z,61.79
2019-02-23T04:51:47.683Z,61.96
2019-02-23T04:54:17.458Z,61.63
2019-02-23T04:56:45.928Z,61.90
2019-02-23T04:59:14.431Z,61.89
2019-02-23T05:01:45.559Z,61.81
2019-02-23T05:04:14.025Z,61.67
2019-02-23T05:06:42.561Z,61.44
2019-02-23T05:09:13.763Z,61.49
2019-02-23T05:11:42.245Z,61.48
2019-02-23T05:14:10.747Z,61.38
2019-02-23T05:16:39.207Z,61.13
2019-02-23T05:19:07.970Z,61.33
2019-02-23T05:21:36.471Z,61.41
2019-02-23T05:24:05.099Z,61.39
2019-02-23T05:26:33.574Z,61.51
2019-02-23T05:29:02.074Z,61.62
2019-02-23T05:31:30.556Z,61.78
2019-02-23T05:33:59.577Z,61.67
2019-02-23T05:36:28.379Z,61.52
2019-02-23T05:38:56.926Z,61.57
2019-02-23T05:41:25.525Z,61.39
2019-02-23T05:43:54.112Z,61.13
2019-02-23T05:46:22.618Z,61.19
2019-02-23T05:48:51.164Z,60.96
2019-02-23T05:51:19.662Z,60.95
2019-02-23T05:53:50.988Z,60.97
2019-02-23T05:56:19.537Z,61.23
2019-02-23T05:58:48.078Z,61.38
2019-02-23T06:01:16.610Z,61.66
2019-02-23T06:03:46.882Z,61.55
2019-02-23T06:06:15.413Z,61.95
2019-02-23T06:08:44.712Z,62.03
2019-02-23T06:11:16.012Z,62.18
2019-02-23T06:13:44.543Z,62.06
2019-02-23T06:16:13.026Z,61.78
2019-02-23T06:18:41.534Z,61.63
2019-02-23T06:21:10.094Z,61.60
2019-02-23T06:23:38.598Z,61.61
2019-02-23T06:26:07.121Z,61.67
2019-02-23T06:28:35.604Z,61.78
2019-02-23T06:31:04.232Z,61.65
2019-02-23T06:33:32.801Z,61.70
2019-02-23T06:36:01.291Z,61.85
2019-02-23T06:38:29.792Z,62.05
2019-02-23T06:40:58.420Z,62.26
2019-02-23T06:43:26.931Z,62.26
2019-02-23T06:45:55.432Z,62.17
2019-02-23T06:48:24.020Z,62.25
2019-02-23T06:50:52.559Z,62.28
2019-02-23T06:53:21.066Z,62.10
2019-02-23T06:55:49.861Z,62.06
2019-02-23T06:58:18.365Z,62.03
2019-02-23T07:00:46.965Z,61.83
2019-02-23T07:03:15.595Z,61.72
2019-02-23T07:05:44.283Z,61.83
2019-02-23T07:08:12.836Z,61.91
2019-02-23T07:10:41.489Z,61.81
2019-02-23T07:13:10.007Z,61.58
2019-02-23T07:15:39.091Z,60.69
2019-02-23T07:18:07.722Z,61.51
2019-02-23T07:20:43.708Z,61.02
2019-02-23T07:23:09.632Z,61.04
2019-02-23T07:25:38.916Z,59.99
2019-02-23T07:28:07.371Z,60.37
2019-02-23T07:30:35.937Z,60.31
2019-02-23T07:33:07.351Z,60.62
2019-02-23T07:35:35.850Z,60.71
2019-02-23T07:38:04.399Z,59.48
2019-02-23T07:40:33.663Z,58.64
2019-02-23T07:43:02.186Z,57.75
2019-02-23T07:45:30.685Z,57.44
2019-02-23T07:47:59.669Z,56.98
2019-02-23T07:50:28.300Z,54.39
2019-02-23T07:52:59.329Z,51.91
2019-02-23T07:55:30.969Z,52.11
2019-02-23T07:57:59.543Z,51.70
2019-02-23T08:00:28.058Z,49.88
2019-02-23T08:02:59.553Z,48.08
2019-02-23T08:05:28.143Z,48.14
2019-02-23T08:07:57.841Z,46.29
2019-02-23T08:10:26.808Z,46.55
2019-02-23T08:12:57.343Z,46.33
2019-02-23T08:15:26.793Z,46.90
2019-02-23T08:17:58.375Z,48.61
2019-02-23T08:20:27.316Z,47.62
2019-02-23T08:22:55.823Z,46.76
2019-02-23T08:25:27.568Z,44.44
2019-02-23T08:27:56.128Z,44.59
2019-02-23T08:30:24.833Z,44.43
2019-02-23T08:32:53.389Z,44.93
2019-02-23T08:35:22.128Z,46.87
2019-02-23T08:37:50.627Z,46.32
2019-02-23T08:40:19.368Z,42.84
2019-02-23T08:42:47.842Z,41.94
2019-02-23T08:45:16.594Z,40.92
2019-02-23T08:47:45.107Z,41.65
2019-02-23T08:50:15.338Z,41.41
2019-02-23T08:52:48.997Z,41.36
2019-02-23T08:55:15.134Z,40.73
2019-02-23T08:57:43.626Z,41.83
2019-02-23T09:03:25.130Z,42.14
2019-02-23T09:05:53.633Z,38.64
2019-02-23T09:08:22.190Z,40.52
2019-02-23T09:10:50.689Z,44.03
2019-02-23T09:13:19.229Z,43.27
2019-02-23T09:15:47.727Z,43.12
2019-02-23T09:18:16.192Z,40.14
2019-02-23T09:20:44.676Z,38.84
2019-02-23T09:23:13.216Z,38.07
2019-02-23T09:25:42.034Z,37.24
2019-02-23T09:28:10.500Z,38.59
2019-02-23T09:30:39.049Z,36.86
2019-02-23T09:33:07.519Z,37.05
2019-02-23T09:35:36.404Z,38.94
2019-02-23T09:38:04.998Z,36.37
2019-02-23T09:40:34.010Z,33.74
2019-02-23T09:43:02.483Z,36.64
2019-02-23T09:45:32.594Z,35.96
2019-02-23T09:48:01.126Z,38.99
2019-02-23T09:50:30.917Z,37.18
2019-02-23T09:53:10.844Z,34.90
2019-02-23T09:55:29.643Z,38.62
2019-02-23T09:57:58.108Z,35.08
2019-02-23T10:00:26.579Z,37.27
2019-02-23T10:02:55.121Z,35.91
2019-02-23T10:05:24.828Z,36.38
2019-02-23T10:07:53.332Z,37.24
2019-02-23T10:10:22.014Z,33.50
2019-02-23T10:12:50.467Z,34.36
2019-02-23T10:15:20.795Z,34.19
2019-02-23T10:17:49.241Z,37.32
2019-02-23T10:20:17.899Z,35.64
2019-02-23T10:22:46.381Z,40.59
2019-02-23T10:25:15.021Z,37.47
2019-02-23T10:27:43.497Z,39.13
2019-02-23T10:30:16.772Z,37.25
2019-02-23T10:32:48.256Z,38.44
2019-02-23T10:35:16.821Z,37.00
2019-02-23T10:37:45.352Z,39.23
2019-02-23T10:40:14.003Z,38.79
2019-02-23T10:42:42.482Z,37.19
2019-02-23T10:45:12.319Z,39.49
2019-02-23T10:47:40.883Z,40.87
2019-02-23T10:50:11.342Z,38.39
2019-02-23T10:52:41.535Z,38.41
2019-02-23T10:55:12.376Z,39.61
2019-02-23T10:57:40.997Z,41.72
2019-02-23T11:00:17.082Z,41.94
2019-02-23T11:02:45.704Z,41.55
2019-02-23T11:05:14.824Z,40.86
2019-02-23T11:07:43.469Z,40.78
2019-02-23T11:10:12.491Z,42.74
2019-02-23T11:12:41.037Z,40.10
2019-02-23T11:15:14.290Z,40.24
2019-02-23T11:17:42.870Z,42.33
2019-02-23T11:20:11.899Z,41.49
2019-02-23T11:22:40.447Z,39.38
2019-02-23T11:25:12.685Z,39.48
2019-02-23T11:27:41.225Z,41.25
2019-02-23T11:30:12.807Z,37.69
2019-02-23T11:32:41.296Z,40.41
2019-02-23T11:35:12.975Z,39.63
2019-02-23T11:37:41.466Z,37.83
2019-02-23T11:40:13.997Z,36.41
2019-02-23T11:42:42.534Z,35.09
2019-02-23T11:45:11.816Z,35.36
2019-02-23T11:47:40.355Z,35.98
2019-02-23T11:50:13.707Z,38.33
2019-02-23T11:52:42.250Z,35.42
2019-02-23T11:55:10.923Z,35.58
2019-02-23T11:57:39.431Z,36.46
2019-02-23T12:00:31.600Z,37.68
2019-02-23T12:03:00.184Z,37.58
2019-02-23T12:05:28.724Z,37.90
2019-02-23T12:07:57.247Z,35.97
2019-02-23T12:10:28.972Z,36.69
2019-02-23T12:13:00.058Z,37.53
2019-02-23T12:15:31.617Z,37.65
2019-02-23T12:18:02.252Z,38.57
2019-02-23T12:20:30.810Z,35.39
2019-02-23T12:22:59.266Z,35.14
2019-02-23T12:25:27.767Z,36.65
2019-02-23T12:27:56.253Z,36.86
2019-02-23T12:30:24.895Z,35.95
2019-02-23T12:32:53.462Z,35.23
2019-02-23T12:35:22.116Z,35.56
2019-02-23T12:37:50.598Z,36.19
2019-02-23T12:40:22.047Z,37.10
2019-02-23T12:45:44.372Z,36.58
2019-02-23T12:48:11.410Z,35.64
2019-02-23T12:50:39.883Z,37.33
2019-02-23T12:53:08.354Z,35.71
2019-02-23T12:55:36.842Z,37.43
2019-02-23T12:58:05.386Z,35.94
2019-02-23T13:00:38.004Z,35.55
2019-02-23T13:03:16.290Z,35.03
2019-02-23T13:05:44.808Z,35.22
2019-02-23T13:08:37.217Z,35.52
2019-02-23T13:11:05.816Z,37.83
2019-02-23T13:13:40.169Z,36.67
2019-02-23T13:16:20.490Z,33.90
2019-02-23T13:19:06.741Z,36.50
2019-02-23T13:21:41.203Z,37.80
2019-02-23T13:24:28.362Z,39.58
2019-02-23T13:27:24.515Z,39.28
2019-02-23T13:30:15.683Z,38.12
2019-02-23T13:33:07.257Z,36.06
2019-02-23T13:35:57.119Z,36.78
2019-02-23T13:38:50.604Z,37.33
2019-02-23T13:41:45.971Z,39.54
2019-02-23T13:44:37.123Z,37.22
2019-02-23T13:47:25.141Z,33.91
2019-02-23T13:50:35.425Z,33.12
2019-02-23T13:53:09.630Z,35.35
2019-02-23T13:55:44.034Z,35.46
2019-02-23T14:01:49.374Z,35.92
2019-02-23T14:04:23.540Z,37.46
2019-02-23T14:07:10.838Z,34.59
2019-02-23T14:09:50.901Z,35.05
2019-02-23T14:12:25.355Z,36.42
2019-02-23T14:15:05.844Z,34.90
2019-02-23T14:18:07.970Z,36.79
2019-02-23T14:21:03.308Z,38.16
2019-02-23T14:23:43.444Z,35.22
2019-02-23T14:26:23.194Z,34.93
2019-02-23T14:29:03.475Z,36.19
2019-02-23T14:31:40.736Z,38.28
2019-02-23T14:34:15.105Z,36.33
2019-02-23T14:37:03.179Z,35.14
2019-02-23T14:39:46.479Z,34.24
2019-02-23T14:42:42.164Z,35.93
2019-02-23T14:45:44.461Z,35.88
2019-02-23T14:48:33.956Z,36.26
2019-02-23T14:51:05.466Z,36.40
2019-02-23T14:53:48.842Z,37.31
2019-02-23T14:56:23.324Z,37.03
2019-02-23T14:58:57.482Z,36.67
2019-02-23T15:01:34.711Z,36.96
2019-02-23T15:04:09.191Z,38.19
2019-02-23T15:07:10.638Z,37.55
2019-02-23T15:10:07.286Z,37.14
2019-02-23T15:12:59.119Z,38.92
2019-02-23T15:15:33.509Z,39.74
2019-02-23T15:18:21.756Z,40.59
2019-02-23T15:21:09.794Z,40.05
2019-02-23T15:24:16.173Z,39.78
2019-02-23T15:27:04.151Z,39.84
2019-02-23T15:29:44.559Z,40.24
2019-02-23T15:32:32.812Z,38.73
2019-02-23T15:35:14.755Z,39.58
2019-02-23T15:37:58.120Z,40.31
2019-02-23T15:40:34.980Z,40.46
2019-02-23T15:43:13.144Z,40.88
2019-02-23T15:46:07.347Z,41.02
2019-02-23T15:48:56.371Z,41.73
2019-02-23T15:51:24.996Z,41.05
2019-02-23T15:53:54.034Z,39.54
2019-02-23T15:56:25.684Z,40.09
2019-02-23T15:58:54.160Z,41.14
2019-02-23T16:01:22.803Z,41.18
2019-02-23T16:03:51.331Z,41.25
2019-02-23T16:06:22.471Z,39.01
2019-02-23T16:08:50.948Z,39.76
2019-02-23T16:11:23.984Z,40.57
2019-02-23T16:13:57.003Z,40.58
2019-02-23T16:16:25.653Z,40.33
2019-02-23T16:18:59.794Z,40.42
2019-02-23T16:21:28.303Z,40.39
2019-02-23T16:23:56.838Z,40.37
2019-02-23T16:26:25.489Z,40.54
2019-02-23T16:28:55.849Z,40.66
2019-02-23T16:31:24.368Z,41.40
2019-02-23T16:33:52.955Z,41.28
2019-02-23T16:36:21.408Z,41.43
2019-02-23T16:38:49.890Z,41.08
2019-02-23T16:41:18.480Z,41.37
2019-02-23T16:43:46.967Z,41.77
2019-02-23T16:46:15.456Z,42.30
2019-02-23T16:48:48.499Z,42.67
2019-02-23T16:51:16.998Z,43.09
2019-02-23T16:53:48.732Z,43.48
2019-02-23T16:56:15.796Z,43.73
2019-02-23T16:58:50.823Z,43.92
2019-02-23T17:01:19.297Z,43.79
2019-02-23T17:03:47.907Z,43.62
2019-02-23T17:06:16.475Z,44.41
2019-02-23T17:08:49.445Z,44.22
2019-02-23T17:11:19.224Z,44.46
2019-02-23T17:13:47.788Z,44.13
2019-02-23T17:16:16.795Z,44.50
2019-02-23T17:18:48.521Z,44.87
2019-02-23T17:21:18.591Z,44.56
2019-02-23T17:23:47.122Z,44.94
2019-02-23T17:26:15.583Z,45.10
2019-02-23T17:28:44.146Z,45.29
2019-02-23T17:31:12.708Z,45.08
2019-02-23T17:33:42.834Z,45.26
2019-02-23T17:36:15.604Z,44.13
2019-02-23T17:38:47.177Z,44.44
2019-02-23T17:41:15.672Z,45.03
2019-02-23T17:43:44.162Z,45.24
2019-02-23T17:46:12.627Z,44.58
2019-02-23T17:48:41.523Z,45.34
2019-02-23T17:51:10.025Z,45.56
2019-02-23T17:53:38.509Z,45.39
2019-02-23T17:56:12.199Z,45.76
2019-02-23T17:58:37.196Z,46.07
2019-02-23T18:01:05.765Z,46.09
2019-02-23T18:03:34.239Z,45.50
2019-02-23T18:06:02.793Z,45.36
2019-02-23T18:08:33.096Z,45.59
2019-02-23T18:11:01.685Z,46.00
2019-02-23T18:13:30.181Z,46.25
2019-02-23T18:15:58.847Z,45.95
2019-02-23T18:18:27.327Z,45.80
2019-02-23T18:20:55.815Z,45.61
2019-02-23T18:23:24.288Z,45.78
2019-02-23T18:25:52.867Z,45.82
2019-02-23T18:28:21.376Z,46.04
2019-02-23T18:30:49.852Z,46.05
2019-02-23T18:33:18.349Z,45.97
2019-02-23T18:35:46.930Z,46.18
2019-02-23T18:38:15.473Z,46.08
2019-02-23T18:40:48.377Z,46.03
2019-02-23T18:43:14.248Z,46.15
2019-02-23T18:45:47.623Z,46.55
2019-02-23T18:48:16.457Z,46.94
2019-02-23T18:50:45.031Z,47.29
2019-02-23T18:53:13.510Z,47.75
2019-02-23T18:55:42.011Z,47.80
2019-02-23T18:58:12.109Z,47.96
2019-02-23T19:00:42.608Z,48.38
2019-02-23T19:03:11.242Z,48.72
2019-02-23T19:05:39.725Z,48.89
2019-02-23T19:08:13.768Z,49.18
2019-02-23T19:10:46.509Z,49.48
2019-02-23T19:13:15.025Z,49.62
2019-02-23T19:15:43.502Z,49.44
2019-02-23T19:18:12.082Z,49.38
2019-02-23T19:20:40.619Z,49.78
2019-02-23T19:23:09.208Z,49.83
2019-02-23T19:25:37.688Z,50.55
2019-02-23T19:28:06.175Z,50.67
2019-02-23T19:30:39.652Z,50.57
2019-02-23T19:33:14.642Z,50.91
2019-02-23T19:35:42.848Z,51.01
2019-02-23T19:38:11.360Z,51.01
2019-02-23T19:40:42.989Z,50.93
2019-02-23T19:43:11.583Z,51.11
2019-02-23T19:45:40.130Z,51.14
2019-02-23T19:48:08.694Z,51.36
2019-02-23T19:50:46.554Z,52.00
2019-02-23T19:53:15.056Z,52.13
2019-02-23T19:55:46.872Z,52.46
2019-02-23T19:58:15.603Z,52.85
2019-02-23T20:00:44.503Z,53.30
2019-02-23T20:03:13.278Z,53.93
2019-02-23T20:05:41.909Z,53.78
2019-02-23T20:08:10.446Z,53.95
2019-02-23T20:10:38.938Z,53.89
2019-02-23T20:13:07.393Z,54.48
2019-02-23T20:15:35.888Z,54.66
2019-02-23T20:18:05.911Z,55.02
2019-02-23T20:20:34.665Z,55.20
2019-02-23T20:23:03.250Z,54.91
2019-02-23T20:25:31.733Z,54.86
2019-02-23T20:28:05.221Z,54.79
2019-02-23T20:30:33.783Z,54.74
2019-02-23T20:33:02.264Z,55.01
2019-02-23T20:35:32.109Z,54.73
2019-02-23T20:38:03.730Z,54.70
2019-02-23T20:40:32.335Z,55.04
2019-02-23T20:43:03.570Z,55.06
2019-02-23T20:45:32.097Z,55.05
2019-02-23T20:48:00.573Z,54.81
2019-02-23T20:50:29.066Z,54.98
2019-02-23T20:53:00.342Z,55.09
2019-02-23T20:55:28.862Z,55.02
2019-02-23T20:57:57.335Z,55.07
2019-02-23T21:00:26.816Z,55.52
2019-02-23T21:02:55.416Z,55.90
2019-02-23T21:05:24.223Z,55.95
2019-02-23T21:07:54.353Z,56.45
2019-02-23T21:10:22.886Z,56.74
2019-02-23T21:12:53.471Z,56.71
2019-02-23T21:15:21.747Z,56.83
2019-02-23T21:17:50.305Z,57.02
2019-02-23T21:20:18.865Z,56.90
2019-02-23T21:22:50.175Z,57.04
2019-02-23T21:25:18.738Z,57.10
2019-02-23T21:27:47.252Z,56.98
2019-02-23T21:30:15.895Z,56.81
2019-02-23T21:32:44.854Z,57.28
2019-02-23T21:35:13.478Z,57.52
2019-02-23T21:37:41.979Z,57.37
2019-02-23T21:40:12.196Z,57.31
2019-02-23T21:42:40.841Z,57.76
2019-02-23T21:45:14.335Z,57.71
2019-02-23T21:47:42.905Z,57.71
2019-02-23T21:50:11.525Z,57.67
2019-02-23T21:52:40.110Z,57.75
2019-02-23T21:55:09.253Z,57.59
2019-02-23T21:57:37.810Z,57.50
2019-02-23T22:00:08.558Z,57.75
2019-02-23T22:02:37.072Z,57.93
2019-02-23T22:05:12.424Z,58.16
2019-02-23T22:07:36.380Z,58.26
2019-02-23T22:10:07.554Z,58.51
2019-02-23T22:12:36.043Z,58.57
2019-02-23T22:15:06.485Z,58.98
2019-02-23T22:17:35.002Z,59.06
2019-02-23T22:20:04.297Z,58.98
2019-02-23T22:22:35.615Z,58.95
2019-02-23T22:25:04.789Z,58.97
2019-02-23T22:27:33.249Z,59.18
2019-02-23T22:30:01.957Z,59.06
2019-02-23T22:32:30.440Z,59.28
2019-02-23T22:34:58.901Z,59.43
2019-02-23T22:37:27.524Z,59.89
2019-02-23T22:39:56.222Z,60.19
2019-02-23T22:42:24.687Z,60.23
2019-02-23T22:44:55.645Z,60.39
2019-02-23T22:47:24.117Z,60.30
2019-02-23T22:49:52.606Z,60.20
2019-02-23T22:52:23.772Z,60.32
2019-02-23T22:54:52.392Z,60.45
2019-02-23T22:57:22.364Z,60.57
2019-02-23T22:59:52.362Z,60.33
2019-02-23T23:02:21.038Z,60.77
2019-02-23T23:04:49.489Z,60.91
2019-02-23T23:07:17.962Z,60.72
2019-02-23T23:09:46.450Z,61.04
2019-02-23T23:12:17.036Z,61.08
2019-02-23T23:14:45.525Z,61.32
2019-02-23T23:17:14.081Z,61.53
2019-02-23T23:19:42.522Z,61.74
2019-02-23T23:22:10.988Z,62.06
2019-02-23T23:24:39.464Z,62.45
2019-02-23T23:27:07.947Z,61.80
2019-02-23T23:29:36.414Z,62.15
2019-02-23T23:32:04.947Z,62.03
2019-02-23T23:34:36.086Z,61.96
2019-02-23T23:37:04.564Z,61.89
2019-02-23T23:39:33.020Z,62.24
2019-02-23T23:42:03.036Z,62.11
2019-02-23T23:44:34.752Z,61.78
2019-02-23T23:47:03.224Z,61.67
2019-02-23T23:49:31.666Z,62.17
2019-02-23T23:52:00.146Z,62.36
2019-02-23T23:54:28.609Z,62.25
2019-02-23T23:56:57.134Z,62.03
2019-02-23T23:59:25.611Z,61.99
